createdAt,value
2018-02-06T07:17:06.288Z,92.00
2018-02-06T07:19:38.916Z,91.80
2018-02-06T07:22:10.684Z,91.90
2018-02-06T07:24:39.491Z,91.90
2018-02-06T07:27:07.516Z,91.80
2018-02-06T07:29:35.551Z,91.80
2018-02-06T07:32:06.799Z,91.70
2018-02-06T07:34:34.835Z,91.50
2018-02-06T07:37:04.651Z,91.50
2018-02-06T07:39:33.623Z,91.60
2018-02-06T07:42:01.658Z,91.40
2018-02-06T07:44:31.603Z,91.40
2018-02-06T07:47:02.847Z,91.20
2018-02-06T07:49:30.891Z,91.30
2018-02-06T07:51:58.911Z,90.90
2018-02-06T07:54:26.959Z,90.80
2018-02-06T07:56:55.022Z,90.50
2018-02-06T07:59:26.698Z,90.50
2018-02-06T08:01:56.703Z,90.40
2018-02-06T08:04:24.739Z,90.00
2018-02-06T08:06:53.791Z,89.60
2018-02-06T08:09:27.003Z,90.00
2018-02-06T08:11:56.056Z,89.00
2018-02-06T08:14:24.091Z,88.10
2018-02-06T08:16:54.051Z,89.00
2018-02-06T08:19:22.839Z,87.30
2018-02-06T08:21:51.627Z,87.20
2018-02-06T08:24:20.435Z,87.20
2018-02-06T08:26:53.371Z,87.20
2018-02-06T08:29:22.299Z,86.20
2018-02-06T08:31:51.095Z,85.80
2018-02-06T08:34:22.447Z,85.70
2018-02-06T08:36:52.410Z,85.10
2018-02-06T08:39:23.991Z,86.00
2018-02-06T08:41:53.923Z,85.30
2018-02-06T08:44:22.715Z,83.90
2018-02-06T08:46:53.615Z,83.90
2018-02-06T08:49:21.647Z,83.30
2018-02-06T08:51:49.695Z,82.60
2018-02-06T08:54:22.832Z,80.30
2018-02-06T08:56:56.675Z,80.50
2018-02-06T08:59:24.719Z,79.80
2018-02-06T09:01:57.571Z,78.90
2018-02-06T09:04:25.607Z,79.00
2018-02-06T09:06:53.631Z,76.30
2018-02-06T09:09:21.659Z,75.30
2018-02-06T09:11:56.703Z,74.50
2018-02-06T09:14:24.735Z,74.40
2018-02-06T09:16:57.267Z,74.00
2018-02-06T09:19:32.703Z,73.90
2018-02-06T09:22:01.730Z,73.00
2018-02-06T09:24:33.803Z,74.90
2018-02-06T09:27:02.779Z,73.50
2018-02-06T09:29:30.809Z,70.40
2018-02-06T09:32:02.295Z,70.60
2018-02-06T09:34:33.234Z,68.50
2018-02-06T09:37:01.275Z,68.80
2018-02-06T09:39:35.044Z,70.60
2018-02-06T09:42:03.047Z,69.80
2018-02-06T09:44:37.247Z,72.20
2018-02-06T09:47:09.071Z,69.70
2018-02-06T09:49:37.859Z,69.50
2018-02-06T09:52:07.779Z,69.40
2018-02-06T09:54:38.479Z,69.40
2018-02-06T09:57:07.400Z,69.30
2018-02-06T09:59:40.555Z,71.10
2018-02-06T10:02:08.597Z,71.20
2018-02-06T10:04:43.910Z,67.90
2018-02-06T10:07:15.939Z,69.10
2018-02-06T10:09:45.871Z,67.90
2018-02-06T10:12:13.895Z,67.70
2018-02-06T10:14:47.721Z,67.20
2018-02-06T10:17:17.743Z,65.00
2018-02-06T10:19:49.610Z,66.70
2018-02-06T10:22:18.578Z,66.40
2018-02-06T10:24:46.606Z,62.40
2018-02-06T10:27:14.626Z,59.70
2018-02-06T10:29:42.646Z,56.70
2018-02-06T10:32:11.801Z,55.10
2018-02-06T10:34:39.798Z,53.90
2018-02-06T10:37:19.486Z,51.10
2018-02-06T10:39:47.544Z,51.10
2018-02-06T10:42:16.278Z,51.00
2018-02-06T10:44:45.242Z,50.90
2018-02-06T10:47:16.498Z,50.50
2018-02-06T10:49:45.398Z,50.50
2018-02-06T10:52:13.418Z,49.80
2018-02-06T10:54:44.352Z,49.10
2018-02-06T10:57:12.362Z,47.10
2018-02-06T10:59:40.386Z,47.30
2018-02-06T11:02:09.328Z,45.90
2018-02-06T11:04:38.301Z,47.80
2018-02-06T11:07:07.351Z,47.20
2018-02-06T11:09:54.382Z,47.00
2018-02-06T11:12:23.309Z,46.10
2018-02-06T11:14:53.322Z,43.70
2018-02-06T11:17:21.352Z,46.20
2018-02-06T11:19:49.383Z,46.10
2018-02-06T11:22:18.326Z,46.00
2018-02-06T11:24:48.323Z,46.70
2018-02-06T11:27:18.317Z,46.90
2018-02-06T11:29:46.334Z,46.30
2018-02-06T11:32:17.823Z,46.60
2018-02-06T11:34:55.706Z,46.90
2018-02-06T11:37:24.618Z,45.50
2018-02-06T11:39:53.546Z,44.40
2018-02-06T11:42:25.446Z,46.10
2018-02-06T11:44:53.472Z,47.50
2018-02-06T11:47:22.430Z,47.40
2018-02-06T11:49:50.454Z,47.20
2018-02-06T11:52:22.902Z,46.30
2018-02-06T11:54:50.930Z,48.50
2018-02-06T11:57:20.846Z,47.50
2018-02-06T11:59:48.878Z,46.20
2018-02-06T12:02:16.901Z,46.20
2018-02-06T12:04:47.613Z,46.60
2018-02-06T12:07:15.637Z,46.60
2018-02-06T12:09:44.550Z,46.70
2018-02-06T12:12:12.578Z,47.20
2018-02-06T12:14:47.338Z,47.30
2018-02-06T12:17:19.530Z,47.30
2018-02-06T12:19:47.565Z,47.90
2018-02-06T12:22:16.486Z,48.00
2018-02-06T12:24:47.865Z,47.10
2018-02-06T12:27:19.510Z,46.90
2018-02-06T12:29:47.557Z,47.10
2018-02-06T12:32:15.589Z,48.20
2018-02-06T12:34:43.617Z,48.30
2018-02-06T12:37:15.817Z,48.20
2018-02-06T12:39:47.458Z,47.60
2018-02-06T12:42:16.245Z,44.00
2018-02-06T12:44:45.065Z,45.40
2018-02-06T12:47:17.073Z,45.40
2018-02-06T12:49:48.749Z,49.10
2018-02-06T12:52:22.441Z,49.70
2018-02-06T12:54:53.494Z,49.20
2018-02-06T12:57:21.518Z,49.60
2018-02-06T12:59:49.546Z,49.40
2018-02-06T13:02:22.969Z,49.20
2018-02-06T13:04:52.929Z,49.20
2018-02-06T13:07:26.441Z,50.10
2018-02-06T13:10:00.173Z,49.50
2018-02-06T13:12:34.045Z,50.70
2018-02-06T13:15:06.829Z,50.30
2018-02-06T13:17:35.753Z,49.90
2018-02-06T13:20:03.782Z,51.00
2018-02-06T13:22:32.761Z,52.10
2018-02-06T13:25:00.785Z,52.90
2018-02-06T13:27:29.745Z,52.90
2018-02-06T13:30:03.081Z,52.50
2018-02-06T13:32:31.101Z,51.90
2018-02-06T13:34:59.125Z,50.10
2018-02-06T13:37:27.153Z,49.70
2018-02-06T13:39:56.069Z,49.50
2018-02-06T13:42:24.225Z,46.80
2018-02-06T13:44:56.733Z,49.60
2018-02-06T13:47:24.797Z,49.50
2018-02-06T13:49:54.717Z,51.50
2018-02-06T13:52:28.077Z,52.20
2018-02-06T13:54:56.905Z,52.00
2018-02-06T13:57:24.949Z,52.00
2018-02-06T13:59:55.625Z,51.10
2018-02-06T14:02:25.689Z,51.00
2018-02-06T14:04:55.485Z,52.30
2018-02-06T14:07:28.357Z,52.30
2018-02-06T14:12:23.578Z,52.60
2018-02-06T14:14:51.601Z,53.00
2018-02-06T14:17:21.565Z,53.10
2018-02-06T14:19:52.693Z,53.70
2018-02-06T14:22:20.921Z,54.20
2018-02-06T14:24:50.589Z,54.90
2018-02-06T14:27:18.613Z,54.90
2018-02-06T14:29:50.389Z,54.60
2018-02-06T14:32:18.413Z,53.70
2018-02-06T14:34:53.681Z,53.40
2018-02-06T14:37:27.061Z,53.40
2018-02-06T14:39:55.092Z,53.20
2018-02-06T14:42:34.177Z,52.00
2018-02-06T14:45:07.317Z,54.00
2018-02-06T14:47:38.009Z,56.60
2018-02-06T14:50:13.666Z,56.50
2018-02-06T14:52:45.713Z,58.80
2018-02-06T14:55:20.317Z,58.20
2018-02-06T14:57:53.845Z,58.60
2018-02-06T15:00:26.665Z,59.70
2018-02-06T15:02:54.701Z,62.20
2018-02-06T15:05:28.389Z,62.00
2018-02-06T15:07:56.413Z,62.30
2018-02-06T15:10:25.193Z,63.30
2018-02-06T15:12:53.220Z,63.30
2018-02-06T15:15:28.857Z,61.80
2018-02-06T15:17:56.901Z,60.90
2018-02-06T15:20:26.580Z,58.50
2018-02-06T15:22:54.605Z,58.40
2018-02-06T15:25:23.537Z,58.20
2018-02-06T15:27:51.565Z,56.00
2018-02-06T15:30:32.845Z,56.50
2018-02-06T15:33:14.445Z,54.10
2018-02-06T15:35:48.636Z,54.00
2018-02-06T15:38:20.956Z,53.50
2018-02-06T15:40:50.269Z,52.60
2018-02-06T15:43:18.465Z,53.00
2018-02-06T15:45:46.437Z,51.50
2018-02-06T15:48:16.213Z,51.70
2018-02-06T15:50:46.241Z,51.70
2018-02-06T15:53:18.185Z,52.10
2018-02-06T15:55:52.841Z,56.40
2018-02-06T15:58:21.629Z,57.70
2018-02-06T16:03:52.977Z,59.50
2018-02-06T16:06:24.708Z,61.90
2018-02-06T16:08:52.916Z,64.90
2018-02-06T16:11:31.689Z,65.50
2018-02-06T16:14:01.653Z,67.20
2018-02-06T16:16:41.345Z,69.70
2018-02-06T16:19:11.289Z,69.60
2018-02-06T16:21:39.308Z,70.60
2018-02-06T16:24:08.221Z,71.80
2018-02-06T16:26:41.028Z,71.80
2018-02-06T16:29:11.060Z,73.50
2018-02-06T16:31:46.773Z,75.40
2018-02-06T16:34:22.364Z,75.00
2018-02-06T16:36:50.393Z,75.80
2018-02-06T16:39:18.421Z,75.80
2018-02-06T16:42:00.649Z,77.60
2018-02-06T16:44:29.684Z,77.60
2018-02-06T16:47:04.109Z,78.50
2018-02-06T16:49:37.437Z,78.50
2018-02-06T16:52:12.081Z,79.00
2018-02-06T16:54:45.041Z,79.90
2018-02-06T16:57:14.013Z,80.00
2018-02-06T16:59:42.812Z,80.40
2018-02-06T17:02:23.377Z,80.50
2018-02-06T17:04:52.161Z,81.40
2018-02-06T17:07:22.885Z,82.30
2018-02-06T17:09:55.545Z,82.80
2018-02-06T17:12:25.489Z,82.40
2018-02-06T17:14:54.413Z,82.80
2018-02-06T17:17:22.428Z,83.90
2018-02-06T17:19:51.428Z,84.20
2018-02-06T17:22:21.333Z,83.50
2018-02-06T17:24:50.264Z,83.60
2018-02-06T17:27:19.208Z,82.90
2018-02-06T17:29:52.127Z,82.80
2018-02-06T17:32:24.164Z,81.70
2018-02-06T17:34:52.204Z,81.60
2018-02-06T17:37:20.224Z,81.40
2018-02-06T17:39:54.792Z,81.00
2018-02-06T17:42:23.716Z,80.90
2018-02-06T17:44:54.864Z,80.70
2018-02-06T17:47:23.796Z,80.30
2018-02-06T17:49:55.825Z,80.80
2018-02-06T17:52:29.604Z,82.00
2018-02-06T17:54:57.652Z,81.60
2018-02-06T17:57:30.120Z,81.10
2018-02-06T18:00:00.059Z,82.20
2018-02-06T18:02:28.993Z,82.20
2018-02-06T18:04:58.668Z,83.30
2018-02-06T18:07:27.584Z,83.20
2018-02-06T18:09:56.380Z,84.20
2018-02-06T18:12:28.604Z,83.70
2018-02-06T18:15:00.177Z,83.80
2018-02-06T18:17:29.168Z,84.30
2018-02-06T18:19:57.196Z,83.60
2018-02-06T18:22:26.147Z,83.80
2018-02-06T18:24:54.941Z,83.50
2018-02-06T18:27:38.660Z,83.20
2018-02-06T18:30:06.688Z,83.20
2018-02-06T18:32:34.725Z,83.50
2018-02-06T18:35:08.919Z,83.90
2018-02-06T18:37:58.140Z,84.10
2018-02-06T18:40:26.192Z,83.30
2018-02-06T18:42:56.660Z,83.80
2018-02-06T18:45:26.040Z,83.80
2018-02-06T18:48:05.428Z,83.70
2018-02-06T18:50:35.416Z,83.30
2018-02-06T18:53:05.032Z,83.60
2018-02-06T18:55:40.028Z,83.30
2018-02-06T18:58:14.954Z,82.80
2018-02-06T19:00:48.876Z,83.60
2018-02-06T19:03:18.904Z,83.90
2018-02-06T19:05:46.932Z,83.90
2018-02-06T19:08:16.955Z,84.20
2018-02-06T19:10:49.576Z,84.40
2018-02-06T19:13:17.632Z,84.10
2018-02-06T19:15:52.536Z,84.40
2018-02-06T19:18:20.579Z,84.30
2018-02-06T19:20:49.440Z,84.60
2018-02-06T19:23:21.884Z,84.60
2018-02-06T19:25:53.524Z,84.70
2018-02-06T19:28:28.064Z,84.60
2018-02-06T19:30:59.176Z,85.20
2018-02-06T19:33:40.293Z,84.80
2018-02-06T19:36:12.848Z,85.80
2018-02-06T19:38:43.092Z,85.20
2018-02-06T19:41:30.616Z,85.00
2018-02-06T19:44:22.392Z,85.60
2018-02-06T19:46:56.903Z,86.10
2018-02-06T19:49:26.536Z,86.50
2018-02-06T19:51:55.628Z,86.60
2018-02-06T19:54:29.543Z,86.80
2018-02-06T19:57:12.088Z,87.60
2018-02-06T19:59:45.999Z,87.50
2018-02-06T20:02:15.006Z,87.50
2018-02-06T20:04:55.044Z,87.00
2018-02-06T20:07:25.044Z,86.80
2018-02-06T20:09:54.004Z,85.70
2018-02-06T20:12:22.060Z,86.10
2018-02-06T20:14:50.852Z,86.00
2018-02-06T20:17:22.516Z,85.90
2018-02-06T20:19:55.284Z,85.70
2018-02-06T20:22:29.879Z,85.30
2018-02-06T20:25:05.792Z,85.30
2018-02-06T20:27:48.103Z,84.90
2018-02-06T20:30:17.396Z,84.80
2018-02-06T20:32:47.196Z,84.20
2018-02-06T20:35:18.732Z,84.20
2018-02-06T20:37:48.231Z,84.40
2018-02-06T20:40:18.275Z,84.40
2018-02-06T20:42:52.691Z,84.20
2018-02-06T20:45:24.163Z,84.50
2018-02-06T20:47:56.128Z,83.80
2018-02-06T20:50:25.912Z,84.10
2018-02-06T20:52:55.623Z,84.40
2018-02-06T20:55:25.819Z,84.40
2018-02-06T20:57:57.083Z,84.90
2018-02-06T21:00:27.211Z,85.00
2018-02-06T21:03:00.080Z,85.80
2018-02-06T21:05:28.711Z,86.40
2018-02-06T21:07:56.983Z,86.40
2018-02-06T21:10:26.084Z,86.50
2018-02-06T21:12:55.751Z,85.90
2018-02-06T21:15:25.087Z,85.80
2018-02-06T21:17:55.011Z,86.30
2018-02-06T21:20:24.023Z,86.30
2018-02-06T21:25:29.339Z,86.50
2018-02-06T21:28:03.803Z,87.00
2018-02-06T21:33:05.695Z,87.20
2018-02-06T21:35:38.903Z,87.30
2018-02-06T21:38:12.007Z,87.20
2018-02-06T21:40:41.247Z,87.40
2018-02-06T21:43:16.683Z,88.00
2018-02-06T21:45:57.671Z,88.30
2018-02-06T21:48:29.489Z,88.00
2018-02-06T21:51:02.777Z,87.90
2018-02-06T21:53:55.011Z,88.30
2018-02-06T21:56:24.410Z,88.20
2018-02-06T21:58:57.089Z,88.20
2018-02-06T22:01:26.739Z,88.10
2018-02-06T22:04:10.463Z,88.20
2018-02-06T22:06:46.343Z,88.10
2018-02-06T22:09:14.719Z,87.20
2018-02-06T22:11:49.540Z,87.20
2018-02-06T22:14:18.559Z,87.50
2018-02-06T22:16:47.523Z,87.20
2018-02-06T22:19:20.019Z,87.20
2018-02-06T22:21:48.327Z,87.50
2018-02-06T22:24:17.159Z,87.40
2018-02-06T22:26:52.970Z,87.70
2018-02-06T22:29:31.491Z,87.80
2018-02-06T22:32:00.611Z,87.90
2018-02-06T22:34:33.579Z,88.30
2018-02-06T22:37:07.587Z,88.40
2018-02-06T22:39:58.951Z,88.40
2018-02-06T22:45:02.930Z,89.00
2018-02-06T22:47:40.335Z,89.30
2018-02-06T22:50:09.607Z,89.40
2018-02-06T22:52:39.055Z,89.40
2018-02-06T22:55:13.027Z,89.40
2018-02-06T23:00:25.892Z,89.60
2018-02-06T23:02:55.455Z,89.70
2018-02-06T23:05:24.479Z,90.00
2018-02-06T23:10:26.959Z,89.60
2018-02-06T23:13:02.527Z,90.20
2018-02-06T23:15:34.682Z,89.90
2018-02-06T23:20:45.954Z,90.00
2018-02-06T23:23:25.946Z,90.20
2018-02-06T23:28:40.727Z,90.40
2018-02-06T23:31:11.730Z,90.50
2018-02-06T23:36:14.455Z,90.70
2018-02-06T23:38:49.342Z,90.50
2018-02-06T23:41:21.035Z,90.50
2018-02-06T23:44:01.263Z,90.40
2018-02-06T23:46:31.970Z,90.30
2018-02-06T23:49:03.083Z,90.30
2018-02-06T23:51:37.984Z,90.00
2018-02-06T23:54:16.646Z,89.80
2018-02-06T23:56:46.494Z,89.50
2018-02-06T23:59:14.546Z,89.40
